sensor_id;sensor_type;location;lat;lon;timestamp;temperature;humidity
17813;DHT22;9030;50.792;8.320;2023-07-22T00:02:10;9.00;99.90
17813;DHT22;9030;50.792;8.320;2023-07-22T00:04:37;8.90;99.90
17813;DHT22;9030;50.792;8.320;2023-07-22T00:07:04;8.80;99.90
17813;DHT22;9030;50.792;8.320;2023-07-22T00:09:33;8.70;99.90
17813;DHT22;9030;50.792;8.320;2023-07-22T00:12:00;8.80;99.90
17813;DHT22;9030;50.792;8.320;2023-07-22T00:14:27;8.80;99.90
17813;DHT22;9030;50.792;8.320;2023-07-22T00:16:53;8.90;99.90
17813;DHT22;9030;50.792;8.320;2023-07-22T00:19:20;8.90;99.90
17813;DHT22;9030;50.792;8.320;2023-07-22T00:21:47;9.00;99.90
17813;DHT22;9030;50.792;8.320;2023-07-22T00:24:13;8.90;99.90
17813;DHT22;9030;50.792;8.320;2023-07-22T00:26:41;8.80;99.90
17813;DHT22;9030;50.792;8.320;2023-07-22T00:29:08;8.80;99.90
17813;DHT22;9030;50.792;8.320;2023-07-22T00:31:34;8.80;99.90
17813;DHT22;9030;50.792;8.320;2023-07-22T00:34:01;8.80;99.90
17813;DHT22;9030;50.792;8.320;2023-07-22T00:36:29;8.90;99.90
17813;DHT22;9030;50.792;8.320;2023-07-22T00:38:57;8.90;99.90
17813;DHT22;9030;50.792;8.320;2023-07-22T00:41:23;8.70;99.90
17813;DHT22;9030;50.792;8.320;2023-07-22T00:43:52;8.60;99.90
17813;DHT22;9030;50.792;8.320;2023-07-22T00:46:19;8.60;99.90
17813;DHT22;9030;50.792;8.320;2023-07-22T00:48:46;8.70;99.90
17813;DHT22;9030;50.792;8.320;2023-07-22T00:51:13;8.70;99.90
17813;DHT22;9030;50.792;8.320;2023-07-22T00:53:40;8.70;99.90
17813;DHT22;9030;50.792;8.320;2023-07-22T00:56:06;8.60;99.90
17813;DHT22;9030;50.792;8.320;2023-07-22T00:58:33;8.40;99.90
17813;DHT22;9030;50.792;8.320;2023-07-22T01:01:01;8.30;99.90
17813;DHT22;9030;50.792;8.320;2023-07-22T01:03:28;8.20;99.90
17813;DHT22;9030;50.792;8.320;2023-07-22T01:05:55;8.30;99.90
17813;DHT22;9030;50.792;8.320;2023-07-22T01:08:22;8.20;99.90
17813;DHT22;9030;50.792;8.320;2023-07-22T01:10:49;8.20;99.90
17813;DHT22;9030;50.792;8.320;2023-07-22T01:13:15;8.10;99.90
17813;DHT22;9030;50.792;8.320;2023-07-22T01:15:42;8.10;99.90
17813;DHT22;9030;50.792;8.320;2023-07-22T01:18:11;8.10;99.90
17813;DHT22;9030;50.792;8.320;2023-07-22T01:20:38;8.10;99.90
17813;DHT22;9030;50.792;8.320;2023-07-22T01:23:07;8.00;99.90
17813;DHT22;9030;50.792;8.320;2023-07-22T01:25:33;8.00;99.90
17813;DHT22;9030;50.792;8.320;2023-07-22T01:28:00;8.00;99.90
17813;DHT22;9030;50.792;8.320;2023-07-22T01:30:27;8.20;99.90
17813;DHT22;9030;50.792;8.320;2023-07-22T01:32:53;8.10;99.90
17813;DHT22;9030;50.792;8.320;2023-07-22T01:35:20;8.10;99.90
17813;DHT22;9030;50.792;8.320;2023-07-22T01:37:47;8.00;99.90
17813;DHT22;9030;50.792;8.320;2023-07-22T01:40:15;8.00;99.90
17813;DHT22;9030;50.792;8.320;2023-07-22T01:42:42;8.00;99.90
17813;DHT22;9030;50.792;8.320;2023-07-22T01:45:09;7.90;99.90
17813;DHT22;9030;50.792;8.320;2023-07-22T01:47:36;7.90;99.90
17813;DHT22;9030;50.792;8.320;2023-07-22T01:50:04;7.90;99.90
17813;DHT22;9030;50.792;8.320;2023-07-22T01:52:31;7.90;99.90
17813;DHT22;9030;50.792;8.320;2023-07-22T01:54:58;7.80;99.90
17813;DHT22;9030;50.792;8.320;2023-07-22T01:57:26;7.80;99.90
17813;DHT22;9030;50.792;8.320;2023-07-22T01:59:53;7.70;99.90
17813;DHT22;9030;50.792;8.320;2023-07-22T02:02:19;7.70;99.90
17813;DHT22;9030;50.792;8.320;2023-07-22T02:04:46;7.80;99.90
17813;DHT22;9030;50.792;8.320;2023-07-22T02:07:13;7.70;99.90
17813;DHT22;9030;50.792;8.320;2023-07-22T02:09:40;7.70;99.90
17813;DHT22;9030;50.792;8.320;2023-07-22T02:12:07;7.70;99.90
17813;DHT22;9030;50.792;8.320;2023-07-22T02:14:36;7.70;99.90
17813;DHT22;9030;50.792;8.320;2023-07-22T02:17:03;7.70;99.90
17813;DHT22;9030;50.792;8.320;2023-07-22T02:19:29;7.70;99.90
17813;DHT22;9030;50.792;8.320;2023-07-22T02:21:56;7.70;99.90
17813;DHT22;9030;50.792;8.320;2023-07-22T02:24:23;7.60;99.90
17813;DHT22;9030;50.792;8.320;2023-07-22T02:26:49;7.70;99.90
17813;DHT22;9030;50.792;8.320;2023-07-22T02:29:16;7.70;99.90
17813;DHT22;9030;50.792;8.320;2023-07-22T02:31:46;7.60;99.90
17813;DHT22;9030;50.792;8.320;2023-07-22T02:34:13;7.50;99.90
17813;DHT22;9030;50.792;8.320;2023-07-22T02:36:39;7.50;99.90
17813;DHT22;9030;50.792;8.320;2023-07-22T02:39:06;7.40;99.90
17813;DHT22;9030;50.792;8.320;2023-07-22T02:41:35;7.40;99.90
17813;DHT22;9030;50.792;8.320;2023-07-22T02:44:02;7.30;99.90
17813;DHT22;9030;50.792;8.320;2023-07-22T02:46:29;7.30;99.90
17813;DHT22;9030;50.792;8.320;2023-07-22T02:48:57;7.30;99.90
17813;DHT22;9030;50.792;8.320;2023-07-22T02:51:24;7.30;99.90
17813;DHT22;9030;50.792;8.320;2023-07-22T02:53:51;7.30;99.90
17813;DHT22;9030;50.792;8.320;2023-07-22T02:56:18;7.30;99.90
17813;DHT22;9030;50.792;8.320;2023-07-22T02:58:45;7.40;99.90
17813;DHT22;9030;50.792;8.320;2023-07-22T03:01:11;7.40;99.90
17813;DHT22;9030;50.792;8.320;2023-07-22T03:03:38;7.40;99.90
17813;DHT22;9030;50.792;8.320;2023-07-22T03:06:07;7.40;99.90
17813;DHT22;9030;50.792;8.320;2023-07-22T03:08:34;7.30;99.90
17813;DHT22;9030;50.792;8.320;2023-07-22T03:11:01;7.30;99.90
17813;DHT22;9030;50.792;8.320;2023-07-22T03:13:29;7.30;99.90
17813;DHT22;9030;50.792;8.320;2023-07-22T03:15:56;7.30;99.90
17813;DHT22;9030;50.792;8.320;2023-07-22T03:18:22;7.30;99.90
17813;DHT22;9030;50.792;8.320;2023-07-22T03:20:49;7.30;99.90
17813;DHT22;9030;50.792;8.320;2023-07-22T03:23:18;7.30;99.90
17813;DHT22;9030;50.792;8.320;2023-07-22T03:25:47;7.30;99.90
17813;DHT22;9030;50.792;8.320;2023-07-22T03:28:14;7.30;99.90
17813;DHT22;9030;50.792;8.320;2023-07-22T03:30:42;7.30;99.90
17813;DHT22;9030;50.792;8.320;2023-07-22T03:33:09;7.20;99.90
17813;DHT22;9030;50.792;8.320;2023-07-22T03:35:35;7.20;99.90
17813;DHT22;9030;50.792;8.320;2023-07-22T03:38:03;7.10;99.90
17813;DHT22;9030;50.792;8.320;2023-07-22T03:40:31;7.20;99.90
17813;DHT22;9030;50.792;8.320;2023-07-22T03:42:58;7.20;99.90
17813;DHT22;9030;50.792;8.320;2023-07-22T03:45:25;7.30;99.90
17813;DHT22;9030;50.792;8.320;2023-07-22T03:47:53;7.30;99.90
17813;DHT22;9030;50.792;8.320;2023-07-22T03:50:20;7.30;99.90
17813;DHT22;9030;50.792;8.320;2023-07-22T03:52:47;7.40;99.90
17813;DHT22;9030;50.792;8.320;2023-07-22T03:55:14;7.40;99.90
17813;DHT22;9030;50.792;8.320;2023-07-22T03:57:42;7.40;99.90
17813;DHT22;9030;50.792;8.320;2023-07-22T04:00:09;7.40;99.90
17813;DHT22;9030;50.792;8.320;2023-07-22T04:02:36;7.40;99.90
17813;DHT22;9030;50.792;8.320;2023-07-22T04:05:03;7.40;99.90
17813;DHT22;9030;50.792;8.320;2023-07-22T04:07:30;7.40;99.90
17813;DHT22;9030;50.792;8.320;2023-07-22T04:09:57;7.40;99.90
17813;DHT22;9030;50.792;8.320;2023-07-22T04:12:24;7.20;99.90
17813;DHT22;9030;50.792;8.320;2023-07-22T04:14:52;7.10;99.90
17813;DHT22;9030;50.792;8.320;2023-07-22T04:17:18;7.00;99.90
17813;DHT22;9030;50.792;8.320;2023-07-22T04:19:45;7.00;99.90
17813;DHT22;9030;50.792;8.320;2023-07-22T04:22:11;7.00;99.90
17813;DHT22;9030;50.792;8.320;2023-07-22T04:24:38;7.10;99.90
17813;DHT22;9030;50.792;8.320;2023-07-22T04:27:05;7.20;99.90
17813;DHT22;9030;50.792;8.320;2023-07-22T04:29:32;7.30;99.90
17813;DHT22;9030;50.792;8.320;2023-07-22T04:32:01;7.40;99.90
17813;DHT22;9030;50.792;8.320;2023-07-22T04:34:29;7.50;99.90
17813;DHT22;9030;50.792;8.320;2023-07-22T04:36:55;7.60;99.90
17813;DHT22;9030;50.792;8.320;2023-07-22T04:39:23;7.70;99.90
17813;DHT22;9030;50.792;8.320;2023-07-22T04:41:49;7.80;99.90
17813;DHT22;9030;50.792;8.320;2023-07-22T04:44:17;7.80;99.90
17813;DHT22;9030;50.792;8.320;2023-07-22T04:46:44;7.80;99.90
17813;DHT22;9030;50.792;8.320;2023-07-22T04:49:12;7.80;99.90
17813;DHT22;9030;50.792;8.320;2023-07-22T04:51:44;7.70;99.90
17813;DHT22;9030;50.792;8.320;2023-07-22T04:54:10;7.80;99.90
17813;DHT22;9030;50.792;8.320;2023-07-22T04:56:37;7.80;99.90
17813;DHT22;9030;50.792;8.320;2023-07-22T04:59:04;7.90;99.90
17813;DHT22;9030;50.792;8.320;2023-07-22T05:01:30;8.10;99.90
17813;DHT22;9030;50.792;8.320;2023-07-22T05:03:57;8.20;99.90
17813;DHT22;9030;50.792;8.320;2023-07-22T05:06:25;8.20;99.90
17813;DHT22;9030;50.792;8.320;2023-07-22T05:08:52;8.30;99.90
17813;DHT22;9030;50.792;8.320;2023-07-22T05:11:18;8.40;99.90
17813;DHT22;9030;50.792;8.320;2023-07-22T05:13:45;8.40;99.90
17813;DHT22;9030;50.792;8.320;2023-07-22T05:16:12;8.50;99.90
17813;DHT22;9030;50.792;8.320;2023-07-22T05:18:38;8.60;99.90
17813;DHT22;9030;50.792;8.320;2023-07-22T05:21:05;8.70;99.90
17813;DHT22;9030;50.792;8.320;2023-07-22T05:23:33;8.90;99.90
17813;DHT22;9030;50.792;8.320;2023-07-22T05:26:00;9.10;99.90
17813;DHT22;9030;50.792;8.320;2023-07-22T05:28:26;9.40;99.90
17813;DHT22;9030;50.792;8.320;2023-07-22T05:30:55;9.70;99.90
17813;DHT22;9030;50.792;8.320;2023-07-22T05:33:22;9.90;99.90
17813;DHT22;9030;50.792;8.320;2023-07-22T05:35:48;10.00;99.90
17813;DHT22;9030;50.792;8.320;2023-07-22T05:38:15;9.90;99.90
17813;DHT22;9030;50.792;8.320;2023-07-22T05:40:43;9.80;99.90
17813;DHT22;9030;50.792;8.320;2023-07-22T05:43:10;9.80;99.90
17813;DHT22;9030;50.792;8.320;2023-07-22T05:45:36;9.90;99.90
17813;DHT22;9030;50.792;8.320;2023-07-22T05:48:04;10.00;99.90
17813;DHT22;9030;50.792;8.320;2023-07-22T05:50:30;10.20;99.90
17813;DHT22;9030;50.792;8.320;2023-07-22T05:52:57;10.20;99.90
17813;DHT22;9030;50.792;8.320;2023-07-22T05:55:24;10.30;99.90
17813;DHT22;9030;50.792;8.320;2023-07-22T05:57:53;10.40;99.90
17813;DHT22;9030;50.792;8.320;2023-07-22T06:00:20;10.40;99.90
17813;DHT22;9030;50.792;8.320;2023-07-22T06:02:47;10.30;99.90
17813;DHT22;9030;50.792;8.320;2023-07-22T06:05:15;10.40;99.90
17813;DHT22;9030;50.792;8.320;2023-07-22T06:07:41;10.70;99.90
17813;DHT22;9030;50.792;8.320;2023-07-22T06:10:09;11.00;99.90
17813;DHT22;9030;50.792;8.320;2023-07-22T06:12:35;11.40;99.90
17813;DHT22;9030;50.792;8.320;2023-07-22T06:15:04;11.70;99.90
17813;DHT22;9030;50.792;8.320;2023-07-22T06:17:31;11.90;99.90
17813;DHT22;9030;50.792;8.320;2023-07-22T06:19:58;12.10;99.90
17813;DHT22;9030;50.792;8.320;2023-07-22T06:22:24;12.40;99.90
17813;DHT22;9030;50.792;8.320;2023-07-22T06:24:51;12.60;99.90
17813;DHT22;9030;50.792;8.320;2023-07-22T06:27:18;12.90;99.90
17813;DHT22;9030;50.792;8.320;2023-07-22T06:29:44;13.10;99.90
17813;DHT22;9030;50.792;8.320;2023-07-22T06:32:12;13.30;99.90
17813;DHT22;9030;50.792;8.320;2023-07-22T06:34:39;13.50;99.90
17813;DHT22;9030;50.792;8.320;2023-07-22T06:37:06;13.60;99.90
17813;DHT22;9030;50.792;8.320;2023-07-22T06:39:32;13.90;99.90
17813;DHT22;9030;50.792;8.320;2023-07-22T06:41:59;14.20;99.90
17813;DHT22;9030;50.792;8.320;2023-07-22T06:44:25;14.30;99.90
17813;DHT22;9030;50.792;8.320;2023-07-22T06:46:52;14.20;99.90
17813;DHT22;9030;50.792;8.320;2023-07-22T06:49:20;14.30;99.90
17813;DHT22;9030;50.792;8.320;2023-07-22T06:51:47;14.50;99.90
17813;DHT22;9030;50.792;8.320;2023-07-22T06:54:14;14.60;99.90
17813;DHT22;9030;50.792;8.320;2023-07-22T06:56:40;14.80;99.90
17813;DHT22;9030;50.792;8.320;2023-07-22T06:59:07;14.70;99.90
17813;DHT22;9030;50.792;8.320;2023-07-22T07:01:34;14.90;99.90
17813;DHT22;9030;50.792;8.320;2023-07-22T07:04:00;15.10;99.90
17813;DHT22;9030;50.792;8.320;2023-07-22T07:06:29;15.40;99.90
17813;DHT22;9030;50.792;8.320;2023-07-22T07:08:56;15.60;99.90
17813;DHT22;9030;50.792;8.320;2023-07-22T07:11:22;15.80;99.90
17813;DHT22;9030;50.792;8.320;2023-07-22T07:13:49;16.20;99.90
17813;DHT22;9030;50.792;8.320;2023-07-22T07:16:23;16.40;99.90
17813;DHT22;9030;50.792;8.320;2023-07-22T07:18:50;16.90;99.90
17813;DHT22;9030;50.792;8.320;2023-07-22T07:21:17;17.10;99.90
17813;DHT22;9030;50.792;8.320;2023-07-22T07:23:45;17.20;99.90
17813;DHT22;9030;50.792;8.320;2023-07-22T07:26:12;17.60;99.90
17813;DHT22;9030;50.792;8.320;2023-07-22T07:28:39;17.60;99.90
17813;DHT22;9030;50.792;8.320;2023-07-22T07:31:05;17.80;99.90
17813;DHT22;9030;50.792;8.320;2023-07-22T07:33:33;18.00;99.90
17813;DHT22;9030;50.792;8.320;2023-07-22T07:36:00;18.50;99.90
17813;DHT22;9030;50.792;8.320;2023-07-22T07:38:26;18.60;99.90
17813;DHT22;9030;50.792;8.320;2023-07-22T07:40:56;19.00;99.90
17813;DHT22;9030;50.792;8.320;2023-07-22T07:43:23;19.40;99.90
17813;DHT22;9030;50.792;8.320;2023-07-22T07:45:50;19.70;99.90
17813;DHT22;9030;50.792;8.320;2023-07-22T07:48:17;19.20;99.90
17813;DHT22;9030;50.792;8.320;2023-07-22T07:50:43;19.50;99.90
17813;DHT22;9030;50.792;8.320;2023-07-22T07:53:10;20.00;99.90
17813;DHT22;9030;50.792;8.320;2023-07-22T07:55:36;20.20;99.90
17813;DHT22;9030;50.792;8.320;2023-07-22T07:58:04;20.30;99.90
17813;DHT22;9030;50.792;8.320;2023-07-22T08:00:31;19.80;99.90
17813;DHT22;9030;50.792;8.320;2023-07-22T08:02:59;19.80;99.90
17813;DHT22;9030;50.792;8.320;2023-07-22T08:05:25;20.10;99.90
17813;DHT22;9030;50.792;8.320;2023-07-22T08:07:52;20.40;99.90
17813;DHT22;9030;50.792;8.320;2023-07-22T08:10:18;20.80;99.90
17813;DHT22;9030;50.792;8.320;2023-07-22T08:12:45;21.10;99.90
17813;DHT22;9030;50.792;8.320;2023-07-22T08:15:13;21.10;99.90
17813;DHT22;9030;50.792;8.320;2023-07-22T08:17:40;21.10;99.90
17813;DHT22;9030;50.792;8.320;2023-07-22T08:20:07;21.50;99.90
17813;DHT22;9030;50.792;8.320;2023-07-22T08:22:35;21.40;99.90
17813;DHT22;9030;50.792;8.320;2023-07-22T08:25:02;21.60;99.90
17813;DHT22;9030;50.792;8.320;2023-07-22T08:27:29;21.40;99.90
17813;DHT22;9030;50.792;8.320;2023-07-22T08:29:55;21.10;99.90
17813;DHT22;9030;50.792;8.320;2023-07-22T08:32:23;21.20;99.90
17813;DHT22;9030;50.792;8.320;2023-07-22T08:34:50;21.50;99.90
17813;DHT22;9030;50.792;8.320;2023-07-22T08:37:17;22.10;99.90
17813;DHT22;9030;50.792;8.320;2023-07-22T08:39:43;22.20;99.90
17813;DHT22;9030;50.792;8.320;2023-07-22T08:42:11;22.10;99.90
17813;DHT22;9030;50.792;8.320;2023-07-22T08:44:43;21.60;99.90
17813;DHT22;9030;50.792;8.320;2023-07-22T08:47:15;21.70;99.90
17813;DHT22;9030;50.792;8.320;2023-07-22T08:49:48;21.70;99.90
17813;DHT22;9030;50.792;8.320;2023-07-22T08:52:17;21.10;99.90
17813;DHT22;9030;50.792;8.320;2023-07-22T08:54:45;20.00;99.90
17813;DHT22;9030;50.792;8.320;2023-07-22T08:57:12;19.60;99.90
17813;DHT22;9030;50.792;8.320;2023-07-22T08:59:39;19.50;99.90
17813;DHT22;9030;50.792;8.320;2023-07-22T09:02:09;19.60;99.90
17813;DHT22;9030;50.792;8.320;2023-07-22T09:04:36;19.40;99.90
17813;DHT22;9030;50.792;8.320;2023-07-22T09:07:05;19.50;99.90
17813;DHT22;9030;50.792;8.320;2023-07-22T09:09:33;19.90;99.90
17813;DHT22;9030;50.792;8.320;2023-07-22T09:12:01;20.50;99.90
17813;DHT22;9030;50.792;8.320;2023-07-22T09:14:28;21.30;99.90
17813;DHT22;9030;50.792;8.320;2023-07-22T09:16:57;21.20;99.90
17813;DHT22;9030;50.792;8.320;2023-07-22T09:19:24;21.10;99.90
17813;DHT22;9030;50.792;8.320;2023-07-22T09:21:51;21.00;99.90
17813;DHT22;9030;50.792;8.320;2023-07-22T09:24:24;21.00;99.90
17813;DHT22;9030;50.792;8.320;2023-07-22T09:26:53;21.00;99.90
17813;DHT22;9030;50.792;8.320;2023-07-22T09:29:32;21.10;99.90
17813;DHT22;9030;50.792;8.320;2023-07-22T09:31:59;21.30;99.90
17813;DHT22;9030;50.792;8.320;2023-07-22T09:34:27;21.90;99.90
17813;DHT22;9030;50.792;8.320;2023-07-22T09:36:54;22.40;99.90
17813;DHT22;9030;50.792;8.320;2023-07-22T09:39:24;22.10;99.90
17813;DHT22;9030;50.792;8.320;2023-07-22T09:41:50;21.80;99.90
17813;DHT22;9030;50.792;8.320;2023-07-22T09:44:18;21.60;99.90
17813;DHT22;9030;50.792;8.320;2023-07-22T09:46:47;21.40;99.90
17813;DHT22;9030;50.792;8.320;2023-07-22T09:49:16;20.90;99.90
17813;DHT22;9030;50.792;8.320;2023-07-22T09:51:43;20.90;99.90
17813;DHT22;9030;50.792;8.320;2023-07-22T09:54:10;20.90;99.90
17813;DHT22;9030;50.792;8.320;2023-07-22T09:56:45;21.00;99.90
17813;DHT22;9030;50.792;8.320;2023-07-22T09:59:12;20.80;99.90
17813;DHT22;9030;50.792;8.320;2023-07-22T10:01:39;21.20;99.90
17813;DHT22;9030;50.792;8.320;2023-07-22T10:04:06;21.60;99.90
17813;DHT22;9030;50.792;8.320;2023-07-22T10:06:34;22.00;99.90
17813;DHT22;9030;50.792;8.320;2023-07-22T10:09:03;21.90;99.90
17813;DHT22;9030;50.792;8.320;2023-07-22T10:11:32;21.90;99.90
17813;DHT22;9030;50.792;8.320;2023-07-22T10:14:01;21.90;99.90
17813;DHT22;9030;50.792;8.320;2023-07-22T10:16:28;21.90;99.90
17813;DHT22;9030;50.792;8.320;2023-07-22T10:18:55;21.50;99.90
17813;DHT22;9030;50.792;8.320;2023-07-22T10:21:24;21.30;99.90
17813;DHT22;9030;50.792;8.320;2023-07-22T10:23:51;21.50;99.90
17813;DHT22;9030;50.792;8.320;2023-07-22T10:26:19;21.40;99.90
17813;DHT22;9030;50.792;8.320;2023-07-22T10:28:47;21.50;99.90
17813;DHT22;9030;50.792;8.320;2023-07-22T10:31:15;21.90;99.90
17813;DHT22;9030;50.792;8.320;2023-07-22T10:33:45;22.10;99.90
17813;DHT22;9030;50.792;8.320;2023-07-22T10:36:14;22.10;99.90
17813;DHT22;9030;50.792;8.320;2023-07-22T10:38:41;22.60;99.90
17813;DHT22;9030;50.792;8.320;2023-07-22T10:41:12;22.90;99.90
17813;DHT22;9030;50.792;8.320;2023-07-22T10:43:39;22.90;99.90
17813;DHT22;9030;50.792;8.320;2023-07-22T10:46:08;22.60;99.90
17813;DHT22;9030;50.792;8.320;2023-07-22T10:48:37;22.60;99.90
17813;DHT22;9030;50.792;8.320;2023-07-22T10:51:06;22.20;99.90
17813;DHT22;9030;50.792;8.320;2023-07-22T10:53:37;22.20;99.90
17813;DHT22;9030;50.792;8.320;2023-07-22T10:56:06;22.50;99.90
17813;DHT22;9030;50.792;8.320;2023-07-22T10:58:33;22.90;99.90
17813;DHT22;9030;50.792;8.320;2023-07-22T11:01:24;22.80;99.90
17813;DHT22;9030;50.792;8.320;2023-07-22T11:04:13;22.40;99.90
17813;DHT22;9030;50.792;8.320;2023-07-22T11:06:52;22.20;99.90
17813;DHT22;9030;50.792;8.320;2023-07-22T11:09:37;22.20;99.90
17813;DHT22;9030;50.792;8.320;2023-07-22T11:12:06;22.60;99.90
17813;DHT22;9030;50.792;8.320;2023-07-22T11:14:34;22.90;99.90
17813;DHT22;9030;50.792;8.320;2023-07-22T11:17:02;23.20;99.90
17813;DHT22;9030;50.792;8.320;2023-07-22T11:19:32;24.00;99.90
17813;DHT22;9030;50.792;8.320;2023-07-22T11:21:59;23.80;99.90
17813;DHT22;9030;50.792;8.320;2023-07-22T11:24:26;23.70;99.90
17813;DHT22;9030;50.792;8.320;2023-07-22T11:26:53;24.20;99.90
17813;DHT22;9030;50.792;8.320;2023-07-22T11:29:20;24.50;99.90
17813;DHT22;9030;50.792;8.320;2023-07-22T11:31:48;24.10;99.90
17813;DHT22;9030;50.792;8.320;2023-07-22T11:34:16;24.10;99.90
17813;DHT22;9030;50.792;8.320;2023-07-22T11:36:44;23.70;99.90
17813;DHT22;9030;50.792;8.320;2023-07-22T11:39:14;23.50;99.90
17813;DHT22;9030;50.792;8.320;2023-07-22T11:41:41;23.80;99.90
17813;DHT22;9030;50.792;8.320;2023-07-22T11:44:09;24.30;99.90
17813;DHT22;9030;50.792;8.320;2023-07-22T11:46:47;24.40;99.90
17813;DHT22;9030;50.792;8.320;2023-07-22T11:49:22;23.60;99.90
17813;DHT22;9030;50.792;8.320;2023-07-22T11:51:50;23.80;99.90
17813;DHT22;9030;50.792;8.320;2023-07-22T11:54:17;24.80;99.90
17813;DHT22;9030;50.792;8.320;2023-07-22T11:56:44;25.70;99.90
17813;DHT22;9030;50.792;8.320;2023-07-22T11:59:11;26.20;99.90
17813;DHT22;9030;50.792;8.320;2023-07-22T12:01:37;26.00;99.90
17813;DHT22;9030;50.792;8.320;2023-07-22T12:04:09;25.40;99.90
17813;DHT22;9030;50.792;8.320;2023-07-22T12:06:37;24.90;99.90
17813;DHT22;9030;50.792;8.320;2023-07-22T12:09:07;24.90;99.90
17813;DHT22;9030;50.792;8.320;2023-07-22T12:11:34;25.10;99.90
17813;DHT22;9030;50.792;8.320;2023-07-22T12:14:06;25.40;99.90
17813;DHT22;9030;50.792;8.320;2023-07-22T12:16:34;26.30;99.90
17813;DHT22;9030;50.792;8.320;2023-07-22T12:19:01;25.40;99.90
17813;DHT22;9030;50.792;8.320;2023-07-22T12:21:28;24.40;99.90
17813;DHT22;9030;50.792;8.320;2023-07-22T12:23:55;23.50;99.90
17813;DHT22;9030;50.792;8.320;2023-07-22T12:26:23;22.70;99.90
17813;DHT22;9030;50.792;8.320;2023-07-22T12:28:50;22.70;99.90
17813;DHT22;9030;50.792;8.320;2023-07-22T12:31:16;22.90;99.90
17813;DHT22;9030;50.792;8.320;2023-07-22T12:33:43;23.30;99.90
17813;DHT22;9030;50.792;8.320;2023-07-22T12:36:10;23.20;99.90
17813;DHT22;9030;50.792;8.320;2023-07-22T12:38:37;23.50;99.90
17813;DHT22;9030;50.792;8.320;2023-07-22T12:41:04;23.40;99.90
17813;DHT22;9030;50.792;8.320;2023-07-22T12:43:32;23.30;99.90
17813;DHT22;9030;50.792;8.320;2023-07-22T12:45:58;23.60;99.90
17813;DHT22;9030;50.792;8.320;2023-07-22T12:48:25;24.30;99.90
17813;DHT22;9030;50.792;8.320;2023-07-22T12:50:52;24.10;99.90
17813;DHT22;9030;50.792;8.320;2023-07-22T12:53:18;23.70;99.90
17813;DHT22;9030;50.792;8.320;2023-07-22T12:55:45;23.30;99.90
17813;DHT22;9030;50.792;8.320;2023-07-22T12:58:13;23.30;99.90
17813;DHT22;9030;50.792;8.320;2023-07-22T13:00:41;23.60;99.90
17813;DHT22;9030;50.792;8.320;2023-07-22T13:03:07;24.30;99.90
17813;DHT22;9030;50.792;8.320;2023-07-22T13:05:34;24.40;99.90
17813;DHT22;9030;50.792;8.320;2023-07-22T13:08:01;24.00;99.90
17813;DHT22;9030;50.792;8.320;2023-07-22T13:10:28;23.80;99.90
17813;DHT22;9030;50.792;8.320;2023-07-22T13:12:56;24.00;99.90
17813;DHT22;9030;50.792;8.320;2023-07-22T13:15:22;24.80;99.90
17813;DHT22;9030;50.792;8.320;2023-07-22T13:17:50;25.20;99.90
17813;DHT22;9030;50.792;8.320;2023-07-22T13:20:17;25.50;99.90
17813;DHT22;9030;50.792;8.320;2023-07-22T13:22:43;25.70;99.90
17813;DHT22;9030;50.792;8.320;2023-07-22T13:25:10;25.50;99.90
17813;DHT22;9030;50.792;8.320;2023-07-22T13:27:37;25.30;99.90
17813;DHT22;9030;50.792;8.320;2023-07-22T13:30:07;25.10;99.90
17813;DHT22;9030;50.792;8.320;2023-07-22T13:32:33;24.80;99.90
17813;DHT22;9030;50.792;8.320;2023-07-22T13:35:01;24.30;99.90
17813;DHT22;9030;50.792;8.320;2023-07-22T13:37:29;24.20;99.90
17813;DHT22;9030;50.792;8.320;2023-07-22T13:39:56;24.30;99.90
17813;DHT22;9030;50.792;8.320;2023-07-22T13:42:23;24.00;99.90
17813;DHT22;9030;50.792;8.320;2023-07-22T13:44:49;23.90;99.90
17813;DHT22;9030;50.792;8.320;2023-07-22T13:47:16;23.90;99.90
17813;DHT22;9030;50.792;8.320;2023-07-22T13:49:43;24.00;99.90
17813;DHT22;9030;50.792;8.320;2023-07-22T13:52:11;25.10;99.90
17813;DHT22;9030;50.792;8.320;2023-07-22T13:54:37;25.20;99.90
17813;DHT22;9030;50.792;8.320;2023-07-22T13:57:05;24.80;99.90
17813;DHT22;9030;50.792;8.320;2023-07-22T13:59:31;24.90;99.90
17813;DHT22;9030;50.792;8.320;2023-07-22T14:01:58;25.40;99.90
17813;DHT22;9030;50.792;8.320;2023-07-22T14:04:25;25.20;99.90
17813;DHT22;9030;50.792;8.320;2023-07-22T14:06:51;25.90;99.90
17813;DHT22;9030;50.792;8.320;2023-07-22T14:09:19;26.30;99.90
17813;DHT22;9030;50.792;8.320;2023-07-22T14:11:46;26.70;99.90
17813;DHT22;9030;50.792;8.320;2023-07-22T14:14:13;26.50;99.90
17813;DHT22;9030;50.792;8.320;2023-07-22T14:16:39;25.70;99.90
17813;DHT22;9030;50.792;8.320;2023-07-22T14:19:06;24.50;99.90
17813;DHT22;9030;50.792;8.320;2023-07-22T14:21:33;23.90;99.90
17813;DHT22;9030;50.792;8.320;2023-07-22T14:24:00;23.70;99.90
17813;DHT22;9030;50.792;8.320;2023-07-22T14:26:28;23.70;99.90
17813;DHT22;9030;50.792;8.320;2023-07-22T14:28:54;23.60;99.90
17813;DHT22;9030;50.792;8.320;2023-07-22T14:31:21;24.30;99.90
17813;DHT22;9030;50.792;8.320;2023-07-22T14:33:47;25.10;99.90
17813;DHT22;9030;50.792;8.320;2023-07-22T14:36:14;25.70;99.90
17813;DHT22;9030;50.792;8.320;2023-07-22T14:38:41;24.90;99.90
17813;DHT22;9030;50.792;8.320;2023-07-22T14:41:07;24.20;99.90
17813;DHT22;9030;50.792;8.320;2023-07-22T14:43:35;24.50;99.90
17813;DHT22;9030;50.792;8.320;2023-07-22T14:46:02;24.60;99.90
17813;DHT22;9030;50.792;8.320;2023-07-22T14:48:29;24.50;99.90
17813;DHT22;9030;50.792;8.320;2023-07-22T14:50:56;24.70;99.90
17813;DHT22;9030;50.792;8.320;2023-07-22T14:53:23;25.40;99.90
17813;DHT22;9030;50.792;8.320;2023-07-22T14:55:49;24.90;99.90
17813;DHT22;9030;50.792;8.320;2023-07-22T14:58:16;25.10;99.90
17813;DHT22;9030;50.792;8.320;2023-07-22T15:00:44;25.20;99.90
17813;DHT22;9030;50.792;8.320;2023-07-22T15:03:10;25.40;99.90
17813;DHT22;9030;50.792;8.320;2023-07-22T15:05:37;25.60;99.90
17813;DHT22;9030;50.792;8.320;2023-07-22T15:08:04;25.50;99.90
17813;DHT22;9030;50.792;8.320;2023-07-22T15:10:30;25.90;99.90
17813;DHT22;9030;50.792;8.320;2023-07-22T15:12:57;26.00;99.90
17813;DHT22;9030;50.792;8.320;2023-07-22T15:15:23;26.60;99.90
17813;DHT22;9030;50.792;8.320;2023-07-22T15:17:51;26.00;99.90
17813;DHT22;9030;50.792;8.320;2023-07-22T15:20:18;25.60;99.90
17813;DHT22;9030;50.792;8.320;2023-07-22T15:22:45;25.50;99.90
17813;DHT22;9030;50.792;8.320;2023-07-22T15:25:11;25.50;99.90
17813;DHT22;9030;50.792;8.320;2023-07-22T15:27:38;25.60;99.90
17813;DHT22;9030;50.792;8.320;2023-07-22T15:30:06;25.90;99.90
17813;DHT22;9030;50.792;8.320;2023-07-22T15:32:32;26.40;99.90
17813;DHT22;9030;50.792;8.320;2023-07-22T15:35:00;26.90;99.90
17813;DHT22;9030;50.792;8.320;2023-07-22T15:37:27;26.70;99.90
17813;DHT22;9030;50.792;8.320;2023-07-22T15:39:54;26.10;99.40
17813;DHT22;9030;50.792;8.320;2023-07-22T15:42:20;25.50;99.90
17813;DHT22;9030;50.792;8.320;2023-07-22T15:44:47;24.90;99.90
17813;DHT22;9030;50.792;8.320;2023-07-22T15:47:14;24.40;99.90
17813;DHT22;9030;50.792;8.320;2023-07-22T15:49:40;24.40;99.90
17813;DHT22;9030;50.792;8.320;2023-07-22T15:52:09;24.80;99.90
17813;DHT22;9030;50.792;8.320;2023-07-22T15:54:36;24.70;99.90